CheckWX is a tool to help pilots better visualize weather data.  It is not intended as a substitute for an official pre-flight weather briefing.

10:42:47 UTC

KGYY TAF
Gary / Chicago International Airport
Gary, Indiana, USA
KGYY 180902Z 1809/1906 25012G18KT 6SM -SHRA SCT012 BKN020 TEMPO 1809/1812 3SM -TSRA BR OVC012CB FM181200 27012G18KT 6SM -SHRA OVC012 FM181700 30012KT 6SM -SHRA OVC015 FM182000 32014G20KT P6SM BKN020 FM190200 36015G23KT P6SM OVC015

Apr-18@
09:00 UTC

Apr-18 @ 09:00 UTC

Apr-18@
12:00 UTC

Apr-18 @ 12:00 UTC

KGYY 180902Z 1809/1906 25012G18KT 6SM -SHRA SCT012 BKN020
Wind
  • 250° at 12 KTS
  • {Gusting to 18 KTS
Conditions
Light Rain
Cloud Levels
  • Scattered at 1,200' AGL
  • Broken at 2,000' AGL

Apr-18@
09:00 UTC

Apr-18 @ 09:00 UTC

Apr-18@
12:00 UTC

Apr-18 @ 12:00 UTC

TEMPO 1809/1812 3SM -TSRA BR OVC012CB

Temporary

Temporary Changes expected for less than half the time period

Conditions
Light Thunderstorm, Light Rain, Mist
Cloud Levels
  • Overcast at 1,200' AGL

Apr-18@
12:00 UTC

Apr-18 @ 12:00 UTC

Apr-18@
17:00 UTC

Apr-18 @ 17:00 UTC

FM181200 27012G18KT 6SM -SHRA OVC012

From

From Standard forecast or significant change

Wind
  • 270° at 12 KTS
  • {Gusting to 18 KTS
Conditions
Light Rain
Cloud Levels
  • Overcast at 1,200' AGL

Apr-18@
17:00 UTC

Apr-18 @ 17:00 UTC

Apr-18@
20:00 UTC

Apr-18 @ 20:00 UTC

FM181700 30012KT 6SM -SHRA OVC015

From

From Standard forecast or significant change

Wind
  • 300° at 12 KTS
Conditions
Light Rain
Cloud Levels
  • Overcast at 1,500' AGL

Apr-18@
20:00 UTC

Apr-18 @ 20:00 UTC

Apr-19@
02:00 UTC

Apr-19 @ 02:00 UTC

FM182000 32014G20KT P6SM BKN020

From

From Standard forecast or significant change

Wind
  • 320° at 14 KTS
  • {Gusting to 20 KTS
Cloud Levels
  • Broken at 2,000' AGL

Apr-19@
02:00 UTC

Apr-19 @ 02:00 UTC

Apr-19@
06:00 UTC

Apr-19 @ 06:00 UTC

FM190200 36015G23KT P6SM OVC015

From

From Standard forecast or significant change

Wind
  • 360° at 15 KTS
  • {Gusting to 23 KTS
Cloud Levels
  • Overcast at 1,500' AGL